Time;durP1;ratioP1;P1;durP2;ratioP2;P2;SDS_P1;SDS_P2;PMS_P1;PMS_P2;Temp;Humidity;BMP_temperature;BMP_pressure;BME280_temperature;BME280_humidity;BME280_pressure;Samples;Min_cycle;Max_cycle;Signal;HPM_P1;HPM_P2
2022/04/20 00:02:11;;;;;;;11.30;5.65;;;;;;;4.89;100.00;99348.94;1818300;78;21059;-70
2022/04/20 00:04:38;;;;;;;9.60;5.75;;;;;;;4.89;100.00;99347.64;1818614;78;21075;-70
2022/04/20 00:07:06;;;;;;;7.62;5.45;;;;;;;4.87;100.00;99349.42;1818672;78;21084;-71
2022/04/20 00:09:33;;;;;;;10.93;5.17;;;;;;;4.89;100.00;99341.97;1818804;78;21251;-70
2022/04/20 00:12:02;;;;;;;7.47;5.08;;;;;;;4.91;100.00;99344.55;1818497;78;21037;-70
2022/04/20 00:14:28;;;;;;;8.98;5.50;;;;;;;4.90;100.00;99345.42;1818787;78;20989;-69
2022/04/20 00:16:55;;;;;;;9.18;5.33;;;;;;;4.91;100.00;99354.98;1818231;78;21600;-71
2022/04/20 00:19:22;;;;;;;9.23;5.67;;;;;;;4.90;100.00;99354.13;1818621;78;21132;-70
2022/04/20 00:21:50;;;;;;;10.55;5.90;;;;;;;4.92;100.00;99355.38;1789503;78;22042;-70
2022/04/20 00:24:18;;;;;;;9.33;5.67;;;;;;;4.92;100.00;99356.67;1786253;80;21045;-71
2022/04/20 00:26:44;;;;;;;9.43;6.05;;;;;;;4.92;100.00;99357.98;1786222;79;21057;-71
2022/04/20 00:29:12;;;;;;;8.95;5.95;;;;;;;4.90;100.00;99359.34;1786292;80;21045;-70
2022/04/20 00:31:40;;;;;;;7.75;5.42;;;;;;;4.95;100.00;99357.92;1786109;80;21129;-71
2022/04/20 00:34:06;;;;;;;12.98;6.42;;;;;;;4.91;100.00;99363.66;1786410;79;21651;-69
2022/04/20 00:36:34;;;;;;;10.93;6.30;;;;;;;4.91;100.00;99366.72;1791467;79;21060;-70
2022/04/20 00:39:01;;;;;;;10.03;5.87;;;;;;;4.90;100.00;99362.38;1795274;79;21013;-71
2022/04/20 00:41:28;;;;;;;11.90;6.67;;;;;;;4.91;100.00;99369.33;1795174;79;21103;-70
2022/04/20 00:43:55;;;;;;;12.30;6.12;;;;;;;4.93;100.00;99367.54;1795429;79;21037;-70
2022/04/20 00:46:24;;;;;;;11.10;6.47;;;;;;;4.82;100.00;99349.55;1795119;79;21134;-69
2022/04/20 00:48:53;;;;;;;10.75;6.17;;;;;;;4.94;100.00;99366.17;1795398;79;21051;-71
2022/04/20 00:51:20;;;;;;;7.25;5.35;;;;;;;4.94;100.00;99367.94;1795290;79;20993;-71
2022/04/20 00:53:48;;;;;;;7.72;5.22;;;;;;;4.93;100.00;99375.37;1795286;79;21118;-71
2022/04/20 00:56:16;;;;;;;10.13;5.70;;;;;;;4.96;100.00;99377.88;1795269;79;21024;-70
2022/04/20 00:58:46;;;;;;;11.97;6.37;;;;;;;4.95;100.00;99381.41;1795275;79;21529;-71
2022/04/20 01:01:14;;;;;;;9.55;6.35;;;;;;;4.95;100.00;99381.41;1769096;79;22007;-70
2022/04/20 01:03:44;;;;;;;9.40;6.00;;;;;;;4.95;100.00;99382.71;1795445;79;21038;-70
2022/04/20 01:06:10;;;;;;;8.00;5.60;;;;;;;4.97;100.00;99382.20;1795382;79;21080;-70
2022/04/20 01:09:00;;;;;;;7.87;5.85;;;;;;;4.91;100.00;99379.31;1755551;81;21158;-71
2022/04/20 01:11:30;;;;;;;11.48;6.00;;;;;;;4.90;100.00;99389.77;1662781;83;21273;-71
2022/04/20 01:14:09;;;;;;;9.30;6.25;;;;;;;4.91;100.00;99388.90;1725627;82;21090;-71
2022/04/20 01:16:47;;;;;;;10.48;6.20;;;;;;;4.90;100.00;99387.16;1739505;82;21115;-69
2022/04/20 01:19:16;;;;;;;9.55;6.42;;;;;;;4.90;100.00;99385.86;1735597;82;21126;-69
2022/04/20 01:21:46;;;;;;;9.20;5.53;;;;;;;4.91;100.00;99387.59;1737047;82;21083;-69
2022/04/20 01:24:29;;;;;;;7.72;5.65;;;;;;;4.88;100.00;99386.34;1734036;82;21569;-69
2022/04/20 01:27:04;;;;;;;7.22;5.47;;;;;;;4.91;100.00;99388.90;1734340;82;21090;-70
2022/04/20 01:29:39;;;;;;;9.98;5.70;;;;;;;4.89;100.00;99382.41;1754646;81;21016;-70
2022/04/20 01:32:12;;;;;;;10.58;5.70;;;;;;;4.88;100.00;99381.13;1726519;83;21555;-70
2022/04/20 01:34:56;;;;;;;9.73;5.92;;;;;;;4.88;100.00;99379.41;1722090;83;21075;-70
2022/04/20 01:37:23;;;;;;;10.00;5.70;;;;;;;4.89;100.00;99375.03;1740771;81;21393;-71
2022/04/20 01:39:51;;;;;;;10.70;6.17;;;;;;;4.90;100.00;99376.31;1742114;82;21028;-70
2022/04/20 01:42:17;;;;;;;12.37;6.60;;;;;;;4.91;100.00;99378.46;1741921;82;21041;-70
2022/04/20 01:44:46;;;;;;;8.35;5.75;;;;;;;4.90;100.00;99375.42;1741684;82;21095;-69
2022/04/20 01:47:15;;;;;;;8.98;5.67;;;;;;;4.90;100.00;99374.13;1740442;82;21638;-69
2022/04/20 01:49:47;;;;;;;8.60;5.42;;;;;;;4.90;100.00;99379.34;1689922;82;21197;-71
2022/04/20 01:55:21;;;;;;;9.33;5.83;;;;;;;4.89;100.00;99361.98;1814367;79;28797;-70
2022/04/20 01:57:52;;;;;;;9.15;6.03;;;;;;;4.84;100.00;99368.17;1717710;83;20965;-71
2022/04/20 02:00:37;;;;;;;11.65;5.90;;;;;;;4.86;100.00;99367.30;1750007;81;22150;-70
2022/04/20 02:03:24;;;;;;;10.43;6.08;;;;;;;4.85;100.00;99358.59;1752634;81;20996;-70
2022/04/20 02:05:58;;;;;;;10.60;5.70;;;;;;;4.82;100.00;99362.13;1728659;81;21112;-72
2022/04/20 02:08:37;;;;;;;8.18;4.65;;;;;;;4.81;100.00;99370.88;1751284;81;21014;-70
2022/04/20 02:11:22;;;;;;;8.73;5.95;;;;;;;4.82;100.00;99366.05;1752850;81;20985;-70
2022/04/20 02:13:52;;;;;;;9.10;6.33;;;;;;;4.83;100.00;99369.08;1752467;81;21021;-71
2022/04/20 02:16:22;;;;;;;9.80;6.33;;;;;;;4.83;100.00;99376.91;1752760;81;21568;-70
2022/04/20 02:19:08;;;;;;;8.98;6.25;;;;;;;4.86;100.00;99378.58;1748289;81;21056;-70
2022/04/20 02:21:38;;;;;;;13.13;6.42;;;;;;;4.87;100.00;99371.60;1748604;81;21086;-71
2022/04/20 02:24:05;;;;;;;10.00;6.15;;;;;;;4.88;100.00;99378.52;1747904;82;21041;-71
2022/04/20 02:26:32;;;;;;;8.55;6.67;;;;;;;4.89;100.00;99383.70;1747832;81;21881;-70
2022/04/20 02:29:00;;;;;;;8.98;5.92;;;;;;;4.88;100.00;99378.52;1747432;82;21069;-71
2022/04/20 02:31:27;;;;;;;7.80;5.70;;;;;;;4.87;100.00;99384.64;1747660;81;21045;-70
2022/04/20 02:33:54;;;;;;;9.08;6.05;;;;;;;4.88;100.00;99384.62;1745574;82;21064;-72
2022/04/20 02:36:21;;;;;;;8.15;5.42;;;;;;;4.91;100.00;99381.07;1718083;83;21025;-71
2022/04/20 02:38:50;;;;;;;10.85;6.60;;;;;;;4.91;100.00;99383.68;1718010;83;21485;-71
2022/04/20 02:41:17;;;;;;;7.67;5.53;;;;;;;4.92;100.00;99382.77;1718226;83;21033;-71
2022/04/20 02:43:45;;;;;;;9.68;5.45;;;;;;;4.94;100.00;99388.80;1717693;83;21072;-70
2022/04/20 02:46:12;;;;;;;9.40;6.15;;;;;;;4.92;100.00;99390.59;1717828;83;21080;-70
2022/04/20 02:48:41;;;;;;;7.78;5.50;;;;;;;4.95;100.00;99385.32;1718148;83;21136;-69
2022/04/20 02:51:08;;;;;;;8.20;5.80;;;;;;;4.96;100.00;99384.41;1718172;83;21250;-70
2022/04/20 02:53:37;;;;;;;8.70;5.60;;;;;;;4.94;100.00;99380.52;1716885;83;21172;-70
2022/04/20 02:56:04;;;;;;;10.60;6.25;;;;;;;4.95;100.00;99380.10;1678648;85;21050;-70
2022/04/20 02:58:32;;;;;;;9.15;5.53;;;;;;;4.95;100.00;99382.71;1678598;85;21554;-70
2022/04/20 03:00:59;;;;;;;10.72;6.45;;;;;;;4.97;100.00;99380.89;1678624;85;21768;-71
2022/04/20 03:03:31;;;;;;;10.43;5.95;;;;;;;4.95;100.00;99380.10;1678190;85;21175;-71
2022/04/20 03:05:59;;;;;;;8.10;5.75;;;;;;;4.93;100.00;99384.05;1677176;85;21094;-71
2022/04/20 03:08:27;;;;;;;8.68;6.12;;;;;;;4.92;100.00;99386.68;1678102;85;21077;-70
2022/04/20 03:10:56;;;;;;;9.53;6.05;;;;;;;4.92;100.00;99393.20;1678326;85;21062;-70
2022/04/20 03:13:26;;;;;;;8.40;5.62;;;;;;;4.92;100.00;99394.05;1677848;85;21114;-71
2022/04/20 03:15:54;;;;;;;9.13;5.28;;;;;;;4.92;100.00;99398.42;1678024;85;21302;-70
2022/04/20 03:18:21;;;;;;;8.63;5.83;;;;;;;4.93;100.00;99397.55;1693168;84;21347;-70
2022/04/20 03:20:51;;;;;;;12.20;6.45;;;;;;;4.94;100.00;99407.08;1665517;85;21672;-70
2022/04/20 03:23:20;;;;;;;9.23;5.80;;;;;;;4.95;100.00;99407.50;1702885;84;21089;-70
2022/04/20 03:25:49;;;;;;;9.00;5.80;;;;;;;4.93;100.00;99407.98;1702824;83;21523;-70
2022/04/20 03:28:24;;;;;;;9.38;6.03;;;;;;;4.95;100.00;99412.72;1699101;84;21598;-70
2022/04/20 03:30:51;;;;;;;8.90;5.95;;;;;;;4.97;100.00;99414.81;1710011;83;21064;-71
2022/04/20 03:33:19;;;;;;;11.30;5.55;;;;;;;4.98;100.00;99414.78;1709859;82;22019;-70
2022/04/20 03:35:46;;;;;;;8.53;5.50;;;;;;;5.01;100.00;99413.84;1681435;83;21125;-70
2022/04/20 03:38:13;;;;;;;9.53;5.78;;;;;;;5.01;100.00;99411.23;1710188;83;21058;-71
2022/04/20 03:40:40;;;;;;;10.25;6.28;;;;;;;5.05;100.00;99415.03;1625115;86;21257;-71
2022/04/20 03:43:08;;;;;;;10.40;5.83;;;;;;;5.05;100.00;99403.28;1709707;83;21117;-70
2022/04/20 03:45:36;;;;;;;8.93;5.47;;;;;;;5.10;100.00;99413.61;1701690;83;21109;-71
2022/04/20 03:48:05;;;;;;;8.35;5.42;;;;;;;5.15;100.00;99407.81;1681203;85;21082;-71
2022/04/20 03:50:33;;;;;;;8.55;5.45;;;;;;;5.18;100.00;99409.05;1681427;85;21072;-71
2022/04/20 03:53:00;;;;;;;8.20;5.50;;;;;;;5.23;100.00;99404.56;1681244;85;21565;-70
2022/04/20 03:55:27;;;;;;;7.62;5.47;;;;;;;5.28;100.00;99407.05;1705589;83;20989;-71
2022/04/20 03:57:54;;;;;;;8.13;5.40;;;;;;;5.32;100.00;99406.53;1712450;83;21621;-70
2022/04/20 04:00:23;;;;;;;7.03;5.45;;;;;;;5.37;100.00;99405.95;1712642;83;21025;-71
2022/04/20 04:02:52;;;;;;;7.90;4.97;;;;;;;5.41;100.00;99402.36;1692568;83;21333;-71
2022/04/20 04:05:22;;;;;;;9.23;4.97;;;;;;;5.47;100.00;99399.56;1711636;83;21122;-71
2022/04/20 04:07:51;;;;;;;9.48;4.75;;;;;;;5.52;100.00;99402.05;1712867;83;21042;-71
2022/04/20 04:10:20;;;;;;;5.65;4.08;;;;;;;5.56;100.00;99405.83;1712526;83;21573;-70
2022/04/20 04:12:47;;;;;;;7.65;5.25;;;;;;;5.61;100.00;99400.05;1712763;83;21089;-70
2022/04/20 04:15:15;;;;;;;8.13;4.97;;;;;;;5.63;100.00;99408.67;1712619;83;21037;-70
2022/04/20 04:17:48;;;;;;;6.78;4.83;;;;;;;5.70;100.00;99402.83;1712577;83;21135;-70
2022/04/20 04:20:14;;;;;;;8.60;5.20;;;;;;;5.75;100.00;99409.23;1711381;83;21067;-70
2022/04/20 04:22:43;;;;;;;7.55;4.85;;;;;;;5.78;100.00;99415.23;1706919;83;21089;-72
2022/04/20 04:25:18;;;;;;;10.48;5.12;;;;;;;5.85;100.00;99405.46;1697945;84;21073;-71
2022/04/20 04:27:45;;;;;;;6.53;4.17;;;;;;;5.99;100.00;99405.09;1706787;83;21060;-72
2022/04/20 04:30:12;;;;;;;7.90;5.22;;;;;;;6.08;99.33;99413.50;1706804;84;21903;-70
2022/04/20 04:32:41;;;;;;;9.05;5.35;;;;;;;6.14;97.42;99417.67;1705270;83;22132;-69
2022/04/20 04:35:08;;;;;;;8.03;5.12;;;;;;;6.21;97.15;99413.12;1686688;84;21124;-72
2022/04/20 04:37:36;;;;;;;8.48;5.22;;;;;;;6.23;95.55;99408.70;1706780;84;21073;-72
2022/04/20 04:40:06;;;;;;;7.20;4.92;;;;;;;6.29;96.00;99413.75;1706639;83;21141;-70
2022/04/20 04:42:34;;;;;;;7.83;5.08;;;;;;;6.39;96.06;99416.47;1706882;84;22101;-71
2022/04/20 04:50:34;;;;;;;8.48;5.37;;;;;;;6.80;94.09;99406.90;1706669;84;21049;-71
2022/04/20 04:53:03;;;;;;;7.22;4.92;;;;;;;6.96;92.38;99402.01;1706924;84;21038;-70
2022/04/20 04:55:30;;;;;;;7.37;5.20;;;;;;;7.10;92.58;99412.86;1715173;83;21230;-71
2022/04/20 04:57:56;;;;;;;10.10;5.70;;;;;;;7.22;91.61;99413.73;1720113;83;21182;-71
2022/04/20 05:00:23;;;;;;;9.25;5.50;;;;;;;7.29;90.97;99416.57;1647720;84;21139;-70
2022/04/20 05:03:04;;;;;;;8.68;5.62;;;;;;;7.32;89.45;99417.77;1690679;84;21088;-71
2022/04/20 05:05:32;;;;;;;7.92;5.20;;;;;;;7.28;89.54;99422.70;1691295;84;21089;-71
2022/04/20 05:07:59;;;;;;;9.28;5.70;;;;;;;7.31;89.29;99419.12;1691573;84;21232;-71
2022/04/20 05:10:26;;;;;;;8.55;5.03;;;;;;;7.31;89.09;99419.96;1691294;84;21037;-71
2022/04/20 05:12:55;;;;;;;8.23;4.72;;;;;;;7.31;88.95;99422.58;1691304;84;21124;-70
2022/04/20 05:15:23;;;;;;;6.58;4.70;;;;;;;7.33;89.47;99431.25;1691325;84;21002;-71
2022/04/20 05:17:52;;;;;;;7.95;5.50;;;;;;;7.35;89.46;99441.22;1691538;84;21619;-71
2022/04/20 05:20:20;;;;;;;8.08;4.83;;;;;;;7.42;89.45;99443.64;1695711;84;21248;-71
2022/04/20 05:22:49;;;;;;;8.35;5.78;;;;;;;7.42;88.95;99441.02;1707968;83;21097;-73
2022/04/20 05:25:16;;;;;;;9.33;5.60;;;;;;;7.35;88.09;99441.22;1687684;85;21772;-70
2022/04/20 05:27:44;;;;;;;10.38;5.97;;;;;;;7.31;87.94;99448.78;1687616;85;21566;-71
2022/04/20 05:30:14;;;;;;;11.93;6.80;;;;;;;7.19;87.29;99446.59;1687762;84;22177;-70
2022/04/20 05:32:42;;;;;;;12.33;7.05;;;;;;;7.16;88.16;99457.17;1661767;85;21619;-70
2022/04/20 05:35:11;;;;;;;10.98;6.42;;;;;;;7.13;88.21;99462.06;1686393;85;21086;-70
2022/04/20 05:43:11;;;;;;;10.48;6.45;;;;;;;7.10;88.86;99459.99;1668697;85;21084;-70
2022/04/20 05:45:38;;;;;;;10.15;6.17;;;;;;;7.12;88.73;99466.03;1668947;86;21262;-70
2022/04/20 05:48:08;;;;;;;11.45;6.15;;;;;;;7.11;89.05;99467.80;1667203;86;21550;-71
2022/04/20 05:50:36;;;;;;;12.68;7.22;;;;;;;7.15;89.06;99465.92;1668827;85;21068;-71
2022/04/20 05:53:02;;;;;;;14.43;7.25;;;;;;;7.13;88.85;99461.19;1668824;85;21088;-71
2022/04/20 05:55:30;;;;;;;8.85;4.65;;;;;;;7.15;89.29;99464.61;1663548;85;21521;-71
2022/04/20 05:57:57;;;;;;;13.13;6.20;;;;;;;7.18;89.38;99460.61;1712658;83;21154;-71
2022/04/20 06:00:25;;;;;;;13.25;6.87;;;;;;;7.24;89.29;99465.61;1712744;82;21053;-71
2022/04/20 06:02:57;;;;;;;11.63;7.03;;;;;;;7.31;88.66;99467.11;1709328;83;21076;-71
2022/04/20 06:05:24;;;;;;;13.88;7.03;;;;;;;7.38;87.32;99456.44;1712756;83;21054;-71
2022/04/20 06:07:53;;;;;;;12.15;6.55;;;;;;;7.39;86.63;99466.02;1711510;83;21025;-71
2022/04/20 06:10:30;;;;;;;13.50;8.00;;;;;;;7.41;87.29;99466.80;1710725;83;21131;-71
2022/04/20 06:13:00;;;;;;;16.65;7.08;;;;;;;7.46;86.96;99472.30;1712195;83;21061;-72
2022/04/20 06:15:36;;;;;;;10.93;6.55;;;;;;;7.49;86.55;99472.64;1710470;83;21097;-70
2022/04/20 06:18:15;;;;;;;9.78;6.20;;;;;;;7.54;87.32;99472.02;1635092;83;21068;-70
2022/04/20 06:20:43;;;;;;;13.55;6.85;;;;;;;7.64;87.41;99470.80;1708410;83;21085;-70
2022/04/20 06:23:24;;;;;;;12.98;6.87;;;;;;;7.70;85.35;99474.48;1706298;83;21126;-71
2022/04/20 06:26:00;;;;;;;16.15;7.83;;;;;;;7.62;85.46;99472.61;1705278;83;21562;-69
2022/04/20 06:28:48;;;;;;;14.98;8.05;;;;;;;7.64;86.23;99466.87;1705266;83;21081;-72
2022/04/20 06:31:32;;;;;;;12.63;7.25;;;;;;;7.77;86.31;99469.89;1707249;84;21034;-71
2022/04/20 06:34:10;;;;;;;11.80;6.87;;;;;;;7.88;85.88;99469.05;1669249;85;21058;-71
2022/04/20 06:36:39;;;;;;;14.78;7.17;;;;;;;7.95;85.46;99469.22;1706598;83;22148;-71
2022/04/20 06:39:10;;;;;;;11.22;6.75;;;;;;;8.03;85.46;99468.95;1703354;84;21104;-71
2022/04/20 06:41:55;;;;;;;13.25;7.30;;;;;;;8.17;85.26;99463.19;1706800;84;21093;-71
2022/04/20 06:44:39;;;;;;;13.55;7.40;;;;;;;8.27;84.61;99455.36;1703660;83;21161;-70
2022/04/20 06:47:24;;;;;;;12.23;7.08;;;;;;;8.41;83.93;99453.55;1706622;84;21577;-71
2022/04/20 06:49:54;;;;;;;16.85;7.97;;;;;;;8.54;83.83;99456.56;1644106;84;21898;-71
2022/04/20 07:00:56;;;;;;;16.87;8.90;;;;;;;8.54;81.96;99463.97;1720288;83;21111;-72
2022/04/20 07:03:41;;;;;;;25.43;10.20;;;;;;;8.54;82.46;99469.22;1720343;83;21381;-72
2022/04/20 07:06:27;;;;;;;24.90;10.45;;;;;;;8.60;82.78;99468.98;1685940;84;21046;-72
2022/04/20 07:09:05;;;;;;;20.02;10.15;;;;;;;8.60;81.38;99457.17;1684058;85;21037;-71
2022/04/20 07:11:35;;;;;;;17.10;9.18;;;;;;;8.57;80.83;99454.65;1685216;85;21077;-71
2022/04/20 07:14:04;;;;;;;24.10;10.08;;;;;;;8.55;81.27;99456.48;1685548;85;21054;-71
2022/04/20 07:16:31;;;;;;;17.77;8.60;;;;;;;8.55;81.95;99455.16;1668621;86;21165;-71
2022/04/20 07:19:02;;;;;;;20.17;10.30;;;;;;;8.60;81.67;99462.42;1667132;86;21104;-71
2022/04/20 07:21:40;;;;;;;19.12;9.43;;;;;;;8.65;81.27;99458.73;1674792;85;21149;-71
2022/04/20 07:24:19;;;;;;;17.48;9.08;;;;;;;8.70;81.38;99456.80;1686067;84;21494;-72
2022/04/20 07:27:04;;;;;;;24.20;11.63;;;;;;;8.78;80.95;99445.05;1735305;82;21649;-71
2022/04/20 07:29:43;;;;;;;22.63;11.17;;;;;;;8.86;80.74;99432.95;1732097;82;21832;-70
2022/04/20 07:32:24;;;;;;;14.85;8.88;;;;;;;8.94;80.92;99424.74;1697820;82;21657;-70
2022/04/20 07:34:54;;;;;;;17.98;8.90;;;;;;;9.01;79.73;99425.73;1728069;82;21113;-72
2022/04/20 07:37:28;;;;;;;11.57;6.90;;;;;;;9.11;79.63;99424.91;1704275;84;21840;-72
2022/04/20 07:39:59;;;;;;;;;;;;;;;9.15;79.13;99421.67;1663209;84;21583;-71
2022/04/20 07:42:28;;;;;;;10.18;6.65;;;;;;;9.16;78.47;99426.02;1703637;84;21157;-71
2022/04/20 07:44:59;;;;;;;14.20;6.85;;;;;;;9.18;79.00;99425.03;1703875;84;21066;-71
2022/04/20 07:47:33;;;;;;;11.22;7.30;;;;;;;9.28;78.39;99425.48;1704133;84;22144;-71
2022/04/20 07:50:18;;;;;;;9.75;6.45;;;;;;;9.36;78.55;99425.15;1704351;84;21080;-70
2022/04/20 07:52:57;;;;;;;10.18;5.78;;;;;;;9.50;78.22;99421.92;1705642;84;21025;-71
2022/04/20 07:55:37;;;;;;;9.03;5.80;;;;;;;9.49;75.34;99417.59;1678705;84;21134;-71
2022/04/20 07:58:05;;;;;;;8.38;5.42;;;;;;;9.16;76.02;99423.40;1712117;83;22156;-71
2022/04/20 08:00:42;;;;;;;10.43;5.47;;;;;;;9.00;77.28;99426.66;1711545;83;21057;-70
2022/04/20 08:03:17;;;;;;;7.83;5.25;;;;;;;8.97;78.70;99418.92;1673294;83;21072;-72
2022/04/20 08:05:53;;;;;;;8.35;5.08;;;;;;;9.02;78.31;99423.52;1713327;83;21161;-71
2022/04/20 08:08:22;;;;;;;7.28;5.45;;;;;;;9.14;78.13;99419.98;1712879;83;21231;-71
2022/04/20 08:10:51;;;;;;;8.40;4.87;;;;;;;9.41;78.04;99420.10;1684613;83;21155;-70
2022/04/20 08:16:06;;;;;;;8.33;5.72;;;;;;;9.86;75.67;99416.33;1712137;83;21033;-70
2022/04/20 08:18:35;;;;;;;7.17;5.20;;;;;;;10.00;74.24;99422.28;1711690;83;21029;-72
2022/04/20 08:21:06;;;;;;;10.20;5.70;;;;;;;10.11;73.35;99424.42;1705011;83;21041;-71
2022/04/20 08:23:33;;;;;;;8.53;5.53;;;;;;;10.14;74.22;99419.01;1706769;84;21089;-71
2022/04/20 08:26:00;;;;;;;7.53;4.92;;;;;;;10.23;72.44;99421.20;1707044;84;21057;-71
2022/04/20 08:28:29;;;;;;;7.17;5.05;;;;;;;10.27;71.54;99409.62;1706892;83;21132;-70
2022/04/20 08:30:57;;;;;;;7.45;5.15;;;;;;;10.35;71.83;99396.59;1707047;83;21054;-71
2022/04/20 08:33:24;;;;;;;6.80;4.67;;;;;;;10.54;71.20;99396.11;1706746;84;21594;-72
2022/04/20 08:35:51;;;;;;;6.60;5.05;;;;;;;10.67;69.46;99405.13;1706898;84;22277;-70
2022/04/20 08:38:18;;;;;;;7.78;5.62;;;;;;;10.78;69.34;99411.63;1706879;84;21581;-72
2022/04/20 08:40:45;;;;;;;8.65;6.28;;;;;;;10.89;68.79;99418.07;1707327;84;21124;-71
2022/04/20 08:43:13;;;;;;;7.30;5.58;;;;;;;10.98;67.72;99419.40;1707051;83;21101;-71
2022/04/20 08:45:40;;;;;;;8.70;6.33;;;;;;;11.00;67.02;99412.27;1707126;84;21312;-71
2022/04/20 08:48:09;;;;;;;8.23;5.80;;;;;;;10.78;66.41;99412.95;1706766;84;21128;-71
2022/04/20 08:50:36;;;;;;;8.55;5.83;;;;;;;10.67;66.76;99414.78;1706872;84;21129;-71
2022/04/20 08:53:03;;;;;;;8.55;5.65;;;;;;;10.64;67.45;99418.42;1706702;84;21065;-74
2022/04/20 08:55:31;;;;;;;9.30;5.80;;;;;;;10.69;67.73;99420.83;1708613;83;21019;-72
2022/04/20 08:57:59;;;;;;;9.58;5.67;;;;;;;10.68;67.06;99413.87;1720201;83;22244;-71
2022/04/20 09:00:27;;;;;;;9.30;5.53;;;;;;;10.67;65.60;99418.29;1693513;83;22181;-70
2022/04/20 09:02:58;;;;;;;7.10;5.33;;;;;;;10.48;65.37;99417.45;1720337;83;21096;-71
2022/04/20 09:05:32;;;;;;;8.20;5.20;;;;;;;10.35;65.69;99411.06;1720213;83;21053;-70
2022/04/20 09:07:58;;;;;;;8.40;5.40;;;;;;;10.39;66.75;99412.63;1720142;82;21045;-70
2022/04/20 09:10:26;;;;;;;10.48;6.17;;;;;;;10.55;66.07;99408.33;1720358;82;21842;-70
2022/04/20 09:13:09;;;;;;;9.18;6.00;;;;;;;10.58;65.71;99412.16;1720041;82;21096;-71
2022/04/20 09:15:37;;;;;;;8.10;5.70;;;;;;;10.49;65.14;99419.18;1720057;83;21641;-71
2022/04/20 09:18:04;;;;;;;7.90;5.75;;;;;;;10.41;65.99;99423.47;1720506;82;21037;-71
2022/04/20 09:20:34;;;;;;;7.33;5.37;;;;;;;10.34;65.79;99427.33;1733591;81;21094;-70
2022/04/20 09:23:10;;;;;;;9.35;5.25;;;;;;;10.34;66.69;99430.43;1728798;81;21058;-72
2022/04/20 09:25:42;;;;;;;9.50;6.28;;;;;;;10.37;66.94;99427.64;1755969;81;21058;-70
2022/04/20 09:28:10;;;;;;;9.50;6.55;;;;;;;10.21;66.70;99436.22;1719257;83;21080;-72
2022/04/20 09:30:39;;;;;;;8.68;5.17;;;;;;;10.19;67.01;99430.20;1720049;83;21077;-71
2022/04/20 09:33:07;;;;;;;9.03;5.75;;;;;;;10.23;67.41;99431.73;1719640;83;21576;-70
2022/04/20 09:35:43;;;;;;;9.93;6.17;;;;;;;10.34;66.61;99437.01;1719621;83;21141;-71
2022/04/20 09:38:10;;;;;;;8.60;5.72;;;;;;;10.44;66.58;99436.95;1719959;83;21560;-71
2022/04/20 09:41:06;;;;;;;8.50;5.72;;;;;;;10.60;66.49;99431.81;1720131;83;21002;-71
2022/04/20 09:43:33;;;;;;;8.45;5.60;;;;;;;10.79;66.26;99430.44;1719989;83;21014;-71
2022/04/20 09:48:52;;;;;;;8.83;5.40;;;;;;;10.96;65.34;99438.38;1646273;83;21093;-71
2022/04/20 09:51:20;;;;;;;10.40;6.20;;;;;;;11.06;64.70;99434.34;1718596;83;21678;-71
2022/04/20 09:53:50;;;;;;;9.78;6.62;;;;;;;11.09;64.51;99432.89;1691005;84;21080;-72
2022/04/20 09:56:24;;;;;;;11.33;6.60;;;;;;;11.09;63.87;99432.05;1689484;84;21041;-70
2022/04/20 09:59:04;;;;;;;9.70;7.00;;;;;;;11.07;63.99;99424.20;1715883;83;21104;-71
2022/04/20 10:01:36;;;;;;;7.65;5.78;;;;;;;11.02;63.92;99430.63;1720902;83;21128;-71
2022/04/20 10:04:06;;;;;;;8.40;6.15;;;;;;;11.01;63.93;99421.87;1720668;83;21065;-71
2022/04/20 10:06:33;;;;;;;9.20;6.22;;;;;;;11.04;64.54;99421.73;1720784;83;20993;-72
2022/04/20 10:09:00;;;;;;;9.70;7.62;;;;;;;11.11;63.93;99424.89;1720874;83;21009;-72
2022/04/20 10:11:28;;;;;;;11.53;7.65;;;;;;;11.09;62.53;99430.26;1720712;83;21049;-71
2022/04/20 10:16:50;;;;;;;12.18;6.25;;;;;;;10.90;62.06;99427.70;1720727;83;21092;-71
2022/04/20 10:19:25;;;;;;;9.38;6.65;;;;;;;10.90;61.19;99432.09;1720510;83;21013;-72
2022/04/20 10:21:53;;;;;;;10.18;7.12;;;;;;;10.79;61.56;99439.22;1748355;82;21516;-71
2022/04/20 10:24:25;;;;;;;12.53;6.50;;;;;;;10.57;61.94;99439.39;1750540;82;21651;-71
2022/04/20 10:26:52;;;;;;;10.68;6.65;;;;;;;10.52;62.58;99437.45;1750578;82;21162;-71
2022/04/20 10:29:33;;;;;;;8.83;6.58;;;;;;;10.62;62.16;99446.60;1750466;82;21044;-71
2022/04/20 10:32:05;;;;;;;9.60;7.20;;;;;;;10.70;61.51;99441.83;1749995;82;22256;-71
2022/04/20 10:34:33;;;;;;;10.40;6.35;;;;;;;10.78;61.62;99447.19;1750460;82;21041;-70
2022/04/20 10:37:20;;;;;;;12.45;6.62;;;;;;;10.86;61.26;99447.68;1750321;82;21060;-70
2022/04/20 10:39:53;;;;;;;9.20;6.37;;;;;;;10.88;61.44;99452.37;1748606;82;21318;-71
2022/04/20 10:42:22;;;;;;;9.85;6.80;;;;;;;10.82;61.49;99459.28;1750570;82;21597;-72
2022/04/20 10:44:58;;;;;;;9.88;7.37;;;;;;;10.85;61.46;99467.03;1750440;82;21020;-71
2022/04/20 10:47:36;;;;;;;8.70;6.30;;;;;;;10.87;60.73;99469.13;1722263;82;21189;-71
2022/04/20 10:50:17;;;;;;;9.40;7.15;;;;;;;10.79;61.13;99466.00;1750398;82;21620;-71
2022/04/20 10:52:57;;;;;;;9.38;6.70;;;;;;;10.77;61.47;99463.45;1750697;82;21560;-71
2022/04/20 10:55:41;;;;;;;11.38;6.65;;;;;;;10.69;61.79;99460.33;1749835;82;22068;-72
2022/04/20 10:58:20;;;;;;;11.60;6.37;;;;;;;10.66;61.79;99449.95;1721697;83;21116;-71
2022/04/20 11:00:46;;;;;;;8.83;6.30;;;;;;;10.73;62.03;99447.88;1725300;83;21081;-71
2022/04/20 11:03:15;;;;;;;7.55;5.42;;;;;;;10.82;62.07;99447.44;1725111;83;21557;-71
2022/04/20 11:05:55;;;;;;;8.53;5.70;;;;;;;10.92;62.17;99442.09;1662801;84;21089;-71
2022/04/20 11:08:24;;;;;;;9.83;6.00;;;;;;;11.04;62.00;99437.55;1725590;83;21037;-70
2022/04/20 11:19:53;;;;;;;7.83;5.55;;;;;;;11.36;60.83;99446.91;1690703;84;20999;-72
2022/04/20 11:22:22;;;;;;;6.83;4.90;;;;;;;11.40;59.74;99455.05;1724835;83;21088;-70
2022/04/20 11:25:02;;;;;;;8.93;5.03;;;;;;;11.32;59.46;99452.81;1725278;83;21096;-71
2022/04/20 11:27:34;;;;;;;7.60;6.10;;;;;;;11.24;59.60;99451.48;1725257;83;22190;-71
2022/04/20 11:30:04;;;;;;;8.38;5.65;;;;;;;11.12;59.72;99442.42;1725402;83;21080;-71
2022/04/20 11:32:31;;;;;;;11.10;6.25;;;;;;;11.01;59.80;99431.09;1725189;83;21092;-71
2022/04/20 11:35:07;;;;;;;8.23;5.90;;;;;;;10.92;59.98;99432.87;1725601;83;21099;-70
2022/04/20 11:37:34;;;;;;;12.95;6.20;;;;;;;10.84;60.39;99430.63;1725021;83;21088;-72
2022/04/20 11:40:11;;;;;;;9.98;6.17;;;;;;;10.81;61.01;99420.69;1725200;83;21064;-71
2022/04/20 11:42:40;;;;;;;8.43;5.80;;;;;;;10.77;61.37;99420.47;1699033;83;21105;-72
2022/04/20 11:45:08;;;;;;;8.38;6.65;;;;;;;10.77;61.77;99419.16;1707614;83;21163;-71
2022/04/20 11:47:42;;;;;;;12.85;7.10;;;;;;;10.80;61.76;99411.09;1690440;84;21009;-71
2022/04/20 11:50:13;;;;;;;11.28;5.65;;;;;;;10.87;61.70;99405.91;1724910;83;21105;-71
2022/04/20 11:52:57;;;;;;;7.67;6.03;;;;;;;10.89;61.93;99398.78;1690248;83;26675;-70
2022/04/20 11:55:45;;;;;;;9.40;6.40;;;;;;;10.92;61.84;99397.30;1721851;83;21596;-71
2022/04/20 11:58:14;;;;;;;7.87;5.92;;;;;;;10.94;60.93;99402.03;1725068;81;21853;-71
2022/04/20 12:00:44;;;;;;;9.85;5.97;;;;;;;10.92;60.99;99398.15;1725172;83;21053;-72
2022/04/20 12:03:11;;;;;;;8.05;5.72;;;;;;;10.88;61.25;99397.06;1725064;83;21071;-71
2022/04/20 12:05:38;;;;;;;9.05;6.35;;;;;;;10.87;61.42;99399.32;1724941;83;21624;-71
2022/04/20 12:08:09;;;;;;;8.35;6.12;;;;;;;10.87;61.53;99393.58;1696852;83;21060;-70
2022/04/20 12:10:35;;;;;;;10.68;6.10;;;;;;;10.85;61.47;99390.64;1725231;83;21422;-71
2022/04/20 12:13:03;;;;;;;8.40;6.15;;;;;;;10.78;61.46;99385.30;1725061;83;21105;-70
2022/04/20 12:15:30;;;;;;;8.70;5.75;;;;;;;10.70;61.80;99386.53;1724962;83;21544;-70
2022/04/20 12:18:00;;;;;;;9.18;5.65;;;;;;;10.70;62.42;99383.89;1690305;84;21018;-71
2022/04/20 12:20:28;;;;;;;7.20;4.83;;;;;;;10.73;62.16;99380.73;1725388;83;21060;-71
2022/04/20 12:23:06;;;;;;;8.78;5.65;;;;;;;10.71;62.20;99383.42;1725255;83;21225;-71
2022/04/20 12:25:34;;;;;;;8.90;5.87;;;;;;;10.74;62.62;99387.69;1725382;83;21495;-70
2022/04/20 12:28:35;;;;;;;7.90;5.85;;;;;;;10.78;62.65;99397.14;1725017;83;21096;-71
2022/04/20 12:30:44;;;;;;;9.80;5.90;;;;;;;10.79;62.49;99401.03;1721253;83;21630;-71
2022/04/20 12:33:24;;;;;;;8.60;5.70;;;;;;;10.79;62.50;99402.79;1725004;82;21115;-70